createdAt,value
2023-02-27T00:01:29.309Z,4.03
2023-02-27T00:03:55.747Z,7.33
2023-02-27T00:06:22.096Z,6.50
2023-02-27T00:08:48.462Z,5.00
2023-02-27T00:11:14.813Z,2.97
2023-02-27T00:13:41.107Z,4.07
2023-02-27T00:16:07.515Z,4.67
2023-02-27T00:18:33.860Z,5.80
2023-02-27T00:21:00.180Z,6.70
2023-02-27T00:23:27.711Z,4.23
2023-02-27T00:25:54.949Z,4.37
2023-02-27T00:28:21.253Z,4.50
2023-02-27T00:30:47.578Z,5.27
2023-02-27T00:33:13.937Z,4.30
2023-02-27T00:35:40.254Z,5.40
2023-02-27T00:38:06.670Z,4.70
2023-02-27T00:40:35.846Z,4.63
2023-02-27T00:43:02.159Z,4.00
2023-02-27T00:45:28.552Z,3.57
2023-02-27T00:47:54.871Z,3.10
2023-02-27T00:50:21.173Z,5.47
2023-02-27T00:52:47.612Z,4.80
2023-02-27T00:55:13.941Z,4.47
2023-02-27T00:57:40.644Z,6.20
2023-02-27T01:00:07.005Z,4.10
2023-02-27T01:02:33.383Z,4.43
2023-02-27T01:04:59.824Z,3.60
2023-02-27T01:07:26.290Z,5.33
2023-02-27T01:09:52.670Z,11.53
2023-02-27T01:12:19.057Z,6.07
2023-02-27T01:14:45.395Z,4.87
2023-02-27T01:17:11.695Z,5.97
2023-02-27T01:19:38.010Z,6.20
2023-02-27T01:22:04.328Z,4.67
2023-02-27T01:24:30.652Z,4.27
2023-02-27T01:26:57.014Z,6.17
2023-02-27T01:29:23.322Z,5.30
2023-02-27T01:31:49.703Z,4.73
2023-02-27T01:34:16.143Z,4.33
2023-02-27T01:36:42.539Z,3.90
2023-02-27T01:39:08.858Z,3.90
2023-02-27T01:41:35.217Z,3.80
2023-02-27T01:44:01.531Z,4.60
2023-02-27T01:46:27.883Z,7.87
2023-02-27T01:48:55.744Z,3.63
2023-02-27T01:51:22.069Z,4.77
2023-02-27T01:53:48.387Z,6.17
2023-02-27T01:56:14.685Z,4.30
2023-02-27T01:58:41.026Z,5.80
2023-02-27T02:01:07.440Z,5.77
2023-02-27T02:03:33.774Z,6.33
2023-02-27T02:06:00.135Z,4.43
2023-02-27T02:08:26.552Z,5.40
2023-02-27T02:10:52.898Z,4.07
2023-02-27T02:13:19.241Z,5.77
2023-02-27T02:15:45.548Z,4.37
2023-02-27T02:18:11.899Z,6.03
2023-02-27T02:20:38.256Z,3.40
2023-02-27T02:23:04.600Z,3.23
2023-02-27T02:25:30.922Z,4.73
2023-02-27T02:27:57.272Z,5.20
2023-02-27T02:30:23.673Z,3.27
2023-02-27T02:32:49.979Z,3.30
2023-02-27T02:35:16.520Z,3.47
2023-02-27T02:37:42.845Z,4.07
2023-02-27T02:40:09.149Z,4.67
2023-02-27T02:42:35.456Z,6.63
2023-02-27T02:45:01.750Z,3.97
2023-02-27T02:47:28.051Z,5.53
2023-02-27T02:49:54.370Z,6.07
2023-02-27T02:52:20.696Z,4.47
2023-02-27T02:54:47.096Z,5.80
2023-02-27T02:57:13.401Z,3.90
2023-02-27T02:59:39.729Z,5.10
2023-02-27T03:02:06.056Z,5.03
2023-02-27T03:04:32.440Z,3.53
2023-02-27T03:06:58.867Z,6.13
2023-02-27T03:09:25.684Z,4.50
2023-02-27T03:11:52.006Z,5.80
2023-02-27T03:14:18.320Z,3.20
2023-02-27T03:16:44.618Z,4.63
2023-02-27T03:19:10.909Z,5.73
2023-02-27T03:21:37.221Z,5.73
2023-02-27T03:24:03.688Z,4.33
2023-02-27T03:26:30.020Z,5.83
2023-02-27T03:28:56.325Z,5.50
2023-02-27T03:31:22.706Z,3.73
2023-02-27T03:33:49.117Z,4.77
2023-02-27T03:36:15.452Z,3.03
2023-02-27T03:38:41.778Z,4.83
2023-02-27T03:41:08.094Z,3.70
2023-02-27T03:43:34.392Z,4.43
2023-02-27T03:46:00.797Z,6.93
2023-02-27T03:48:27.143Z,5.00
2023-02-27T03:50:53.490Z,4.73
2023-02-27T03:53:19.794Z,3.67
2023-02-27T03:55:46.102Z,6.13
2023-02-27T03:58:12.410Z,4.87
2023-02-27T04:00:38.743Z,5.73
2023-02-27T04:03:05.173Z,4.53
2023-02-27T04:05:31.502Z,6.03
2023-02-27T04:07:57.794Z,4.70
2023-02-27T04:10:24.114Z,3.40
2023-02-27T04:12:50.460Z,4.17
2023-02-27T04:15:16.771Z,3.37
2023-02-27T04:17:43.067Z,3.97
2023-02-27T04:20:10.620Z,5.20
2023-02-27T04:22:36.946Z,8.00
2023-02-27T04:25:03.266Z,4.13
2023-02-27T04:27:29.591Z,4.77
2023-02-27T04:29:55.894Z,4.10
2023-02-27T04:32:22.311Z,4.20
2023-02-27T04:34:48.682Z,5.17
2023-02-27T04:37:14.989Z,5.07
2023-02-27T04:39:41.301Z,4.57
2023-02-27T04:42:07.643Z,4.30
2023-02-27T04:44:33.983Z,5.17
2023-02-27T04:47:00.312Z,7.77
2023-02-27T04:49:26.610Z,5.07
2023-02-27T04:51:53.006Z,4.90
2023-02-27T04:54:19.311Z,4.83
2023-02-27T04:56:45.640Z,6.10
2023-02-27T04:59:12.013Z,5.10
2023-02-27T05:01:38.313Z,6.53
2023-02-27T05:04:04.645Z,5.32
2023-02-27T05:06:30.968Z,3.77
2023-02-27T05:08:57.702Z,4.25
2023-02-27T05:11:24.015Z,6.07
2023-02-27T05:13:50.359Z,3.77
2023-02-27T05:16:16.725Z,6.77
2023-02-27T05:18:43.126Z,5.77
2023-02-27T05:21:09.420Z,5.80
2023-02-27T05:23:35.799Z,4.35
2023-02-27T05:26:02.122Z,4.87
2023-02-27T05:28:28.448Z,5.50
2023-02-27T05:30:54.749Z,4.45
2023-02-27T05:33:21.070Z,4.53
2023-02-27T05:35:47.438Z,4.95
2023-02-27T05:38:13.770Z,6.60
2023-02-27T05:40:40.069Z,3.90
2023-02-27T05:43:06.368Z,5.80
2023-02-27T05:45:34.719Z,6.50
2023-02-27T05:48:01.079Z,6.00
2023-02-27T05:50:27.414Z,5.67
2023-02-27T05:52:53.745Z,4.60
2023-02-27T05:55:20.101Z,6.43
2023-02-27T05:57:46.406Z,6.90
2023-02-27T06:00:12.761Z,4.50
2023-02-27T06:02:39.093Z,4.50
2023-02-27T06:05:05.426Z,4.00
2023-02-27T06:07:31.863Z,4.30
2023-02-27T06:09:58.207Z,4.53
2023-02-27T06:12:24.522Z,6.97
2023-02-27T06:14:51.938Z,5.72
2023-02-27T06:17:18.314Z,4.65
2023-02-27T06:19:44.752Z,7.23
2023-02-27T06:22:11.177Z,8.00
2023-02-27T06:24:37.477Z,8.13
2023-02-27T06:27:03.799Z,6.00
2023-02-27T06:29:30.215Z,5.53
2023-02-27T06:31:56.591Z,6.43
2023-02-27T06:34:22.952Z,5.47
2023-02-27T06:36:49.305Z,5.93
2023-02-27T06:39:15.706Z,6.17
2023-02-27T06:41:42.062Z,4.70
2023-02-27T06:44:08.501Z,5.67
2023-02-27T06:46:34.845Z,9.10
2023-02-27T06:49:01.157Z,5.10
2023-02-27T06:51:27.555Z,6.18
2023-02-27T06:53:53.878Z,4.77
2023-02-27T06:56:20.208Z,5.32
2023-02-27T06:58:46.636Z,7.00
2023-02-27T07:01:13.644Z,5.78
2023-02-27T07:03:40.001Z,7.93
2023-02-27T07:06:06.328Z,7.30
2023-02-27T07:08:32.703Z,4.37
2023-02-27T07:10:59.540Z,5.25
2023-02-27T07:13:25.857Z,7.28
2023-02-27T07:15:52.499Z,9.03
2023-02-27T07:18:18.875Z,5.33
2023-02-27T07:20:45.217Z,5.12
2023-02-27T07:23:11.550Z,7.03
2023-02-27T07:25:37.891Z,6.12
2023-02-27T07:28:05.239Z,8.75
2023-02-27T07:30:31.681Z,6.57
2023-02-27T07:32:58.029Z,5.13
2023-02-27T07:35:24.698Z,6.47
2023-02-27T07:37:51.019Z,4.65
2023-02-27T07:40:17.339Z,7.03
2023-02-27T07:42:43.732Z,5.72
2023-02-27T07:45:10.176Z,5.82
2023-02-27T07:47:36.579Z,6.47
2023-02-27T07:50:04.753Z,7.82
2023-02-27T07:52:31.288Z,7.37
2023-02-27T07:54:57.637Z,6.00
2023-02-27T07:57:23.961Z,7.65
2023-02-27T07:59:50.286Z,8.85
2023-02-27T08:02:16.616Z,9.57
2023-02-27T08:04:43.134Z,5.32
2023-02-27T08:07:09.542Z,5.65
2023-02-27T08:09:36.634Z,8.98
2023-02-27T08:12:03.190Z,10.73
2023-02-27T08:14:29.525Z,4.93
2023-02-27T08:16:55.835Z,5.87
2023-02-27T08:19:22.168Z,8.32
2023-02-27T08:21:48.517Z,6.07
2023-02-27T08:24:14.830Z,6.82
2023-02-27T08:26:41.156Z,5.85
2023-02-27T08:29:07.832Z,4.85
2023-02-27T08:31:34.222Z,7.07
2023-02-27T08:34:09.950Z,5.87
2023-02-27T08:36:37.003Z,8.00
2023-02-27T08:39:03.383Z,6.15
2023-02-27T08:41:29.690Z,5.18
2023-02-27T08:43:56.138Z,8.40
2023-02-27T08:46:22.454Z,5.30
2023-02-27T08:48:48.784Z,4.85
2023-02-27T08:51:15.118Z,4.43
2023-02-27T08:53:41.450Z,5.37
2023-02-27T08:56:07.796Z,5.85
2023-02-27T08:58:36.009Z,6.10
2023-02-27T09:01:02.420Z,6.75
2023-02-27T09:03:29.039Z,9.68
2023-02-27T09:05:55.470Z,7.45
2023-02-27T09:08:21.799Z,9.23
2023-02-27T09:10:48.121Z,9.15
2023-02-27T09:13:14.430Z,7.60
2023-02-27T09:15:40.767Z,8.25
2023-02-27T09:18:07.116Z,8.68
2023-02-27T09:20:33.531Z,7.57
2023-02-27T09:22:59.936Z,6.82
2023-02-27T09:25:26.358Z,5.53
2023-02-27T09:27:52.698Z,6.85
2023-02-27T09:30:19.018Z,7.05
2023-02-27T09:32:45.389Z,5.85
2023-02-27T09:35:11.729Z,4.85
2023-02-27T09:37:38.055Z,5.97
2023-02-27T09:40:07.044Z,6.97
2023-02-27T09:42:33.367Z,6.25
2023-02-27T09:44:59.682Z,4.53
2023-02-27T09:47:26.036Z,8.68
2023-02-27T09:49:52.372Z,7.25
2023-02-27T09:52:18.708Z,7.35
2023-02-27T09:54:45.075Z,8.18
2023-02-27T09:57:12.410Z,6.62
2023-02-27T09:59:38.748Z,5.53
2023-02-27T10:02:06.343Z,4.95
2023-02-27T10:04:32.757Z,7.10
2023-02-27T10:06:59.160Z,4.03
2023-02-27T10:09:25.604Z,5.85
2023-02-27T10:11:51.949Z,5.00
2023-02-27T10:14:18.993Z,4.35
2023-02-27T10:16:45.420Z,7.22
2023-02-27T10:19:11.726Z,6.07
2023-02-27T10:21:38.070Z,3.97
2023-02-27T10:24:06.751Z,5.25
2023-02-27T10:26:33.953Z,5.15
2023-02-27T10:29:00.379Z,2.37
2023-02-27T10:31:27.263Z,3.75
2023-02-27T10:33:53.837Z,3.62
2023-02-27T10:36:33.048Z,3.22
2023-02-27T10:39:00.226Z,5.45
2023-02-27T10:41:26.999Z,3.35
2023-02-27T10:43:53.498Z,3.80
2023-02-27T10:46:19.843Z,2.40
2023-02-27T10:48:46.271Z,6.10
2023-02-27T10:51:12.600Z,2.37
2023-02-27T10:53:38.910Z,3.30
2023-02-27T10:56:05.204Z,2.33
2023-02-27T10:58:34.650Z,2.62
2023-02-27T11:01:01.511Z,2.80
2023-02-27T11:03:29.226Z,2.00
2023-02-27T11:05:55.595Z,3.08
2023-02-27T11:08:21.928Z,4.00
2023-02-27T11:10:48.268Z,4.18
2023-02-27T11:13:14.559Z,2.05
2023-02-27T11:15:40.881Z,5.22
2023-02-27T11:18:07.184Z,4.15
2023-02-27T11:20:33.497Z,4.07
2023-02-27T11:22:59.850Z,3.45
2023-02-27T11:25:26.167Z,2.83
2023-02-27T11:27:52.571Z,2.75
2023-02-27T11:30:18.910Z,5.43
2023-02-27T11:32:45.264Z,4.12
2023-02-27T11:35:11.582Z,6.00
2023-02-27T11:37:39.588Z,4.07
2023-02-27T11:40:07.186Z,2.78
2023-02-27T11:42:33.630Z,3.65
2023-02-27T11:45:00.027Z,3.83
2023-02-27T11:47:26.734Z,6.45
2023-02-27T11:49:53.079Z,3.85
2023-02-27T11:52:19.409Z,4.12
2023-02-27T11:54:45.721Z,2.95
2023-02-27T11:57:13.071Z,5.00
2023-02-27T11:59:39.441Z,5.72
2023-02-27T12:02:05.885Z,2.75
2023-02-27T12:04:32.196Z,3.65
2023-02-27T12:06:58.537Z,3.50
2023-02-27T12:09:24.861Z,2.95
2023-02-27T12:11:51.164Z,2.28
2023-02-27T12:14:17.488Z,3.47
2023-02-27T12:16:43.863Z,2.22
2023-02-27T12:19:10.212Z,5.07
2023-02-27T12:21:36.512Z,2.00
2023-02-27T12:24:02.838Z,3.17
2023-02-27T12:26:29.516Z,4.60
2023-02-27T12:28:56.268Z,2.72
2023-02-27T12:31:22.603Z,1.95
2023-02-27T12:33:48.928Z,2.00
2023-02-27T12:36:15.411Z,2.33
2023-02-27T12:38:41.800Z,3.50
2023-02-27T12:41:08.270Z,4.15
2023-02-27T12:43:34.600Z,2.80
2023-02-27T12:46:00.986Z,3.90
2023-02-27T12:48:27.309Z,1.73
2023-02-27T12:50:54.097Z,2.15
2023-02-27T12:53:20.445Z,3.50
2023-02-27T12:55:46.755Z,1.70
2023-02-27T12:58:13.113Z,1.42
2023-02-27T13:00:39.516Z,1.92
2023-02-27T13:03:05.887Z,3.35
2023-02-27T13:05:32.523Z,2.55
2023-02-27T13:07:58.882Z,1.65
2023-02-27T13:10:25.339Z,1.92
2023-02-27T13:12:51.693Z,4.87
2023-02-27T13:15:18.036Z,1.48
2023-02-27T13:17:44.360Z,2.20
2023-02-27T13:20:10.784Z,1.90
2023-02-27T13:22:37.106Z,2.12
2023-02-27T13:25:03.502Z,1.52
2023-02-27T13:27:29.908Z,1.30
2023-02-27T13:29:56.726Z,1.70
2023-02-27T13:32:32.693Z,2.50
2023-02-27T13:35:07.838Z,1.60
2023-02-27T13:37:34.167Z,2.37
2023-02-27T13:40:01.593Z,1.30
2023-02-27T13:42:28.077Z,2.67
2023-02-27T13:44:54.453Z,1.92
2023-02-27T13:47:20.785Z,1.83
2023-02-27T13:49:47.147Z,5.20
2023-02-27T13:52:13.465Z,1.05
2023-02-27T13:54:39.791Z,3.67
2023-02-27T13:57:06.543Z,1.77
2023-02-27T13:59:32.955Z,1.35
2023-02-27T14:01:59.301Z,1.40
2023-02-27T14:04:26.316Z,1.33
2023-02-27T14:06:52.618Z,1.92
2023-02-27T14:09:18.954Z,1.30
2023-02-27T14:11:45.272Z,1.48
2023-02-27T14:14:11.675Z,0.77
2023-02-27T14:16:41.097Z,0.93
2023-02-27T14:19:08.008Z,0.70
2023-02-27T14:21:34.315Z,1.77
2023-02-27T14:24:00.726Z,1.45
2023-02-27T14:26:27.991Z,2.67
2023-02-27T14:28:55.896Z,1.42
2023-02-27T14:31:22.332Z,1.25
2023-02-27T14:33:48.712Z,1.62
2023-02-27T14:36:15.184Z,0.80
2023-02-27T14:38:41.514Z,0.80
2023-02-27T14:41:08.277Z,0.70
2023-02-27T14:43:34.639Z,1.87
2023-02-27T14:46:00.976Z,0.80
2023-02-27T14:48:27.339Z,1.27
2023-02-27T14:50:53.951Z,1.00
2023-02-27T14:53:20.373Z,1.25
2023-02-27T14:55:46.679Z,1.58
2023-02-27T14:58:13.146Z,1.08
2023-02-27T15:00:39.500Z,2.03
2023-02-27T15:03:05.945Z,1.62
2023-02-27T15:05:34.864Z,2.15
2023-02-27T15:08:01.397Z,0.90
2023-02-27T15:10:30.807Z,2.35
2023-02-27T15:12:57.115Z,1.90
2023-02-27T15:15:23.472Z,1.45
2023-02-27T15:17:49.809Z,1.00
2023-02-27T15:20:19.140Z,3.72
2023-02-27T15:22:45.445Z,1.20
2023-02-27T15:25:11.753Z,2.15
2023-02-27T15:27:38.118Z,1.58
2023-02-27T15:30:04.644Z,2.12
2023-02-27T15:32:31.023Z,2.40
2023-02-27T15:34:57.417Z,1.12
2023-02-27T15:37:23.792Z,2.67
2023-02-27T15:39:50.117Z,1.35
2023-02-27T15:42:16.424Z,1.58
2023-02-27T15:44:42.722Z,0.88
2023-02-27T15:47:09.714Z,1.55
2023-02-27T15:49:36.021Z,1.30
2023-02-27T15:52:02.386Z,1.52
2023-02-27T15:54:28.810Z,1.48
2023-02-27T15:56:55.132Z,2.72
2023-02-27T15:59:21.520Z,1.50
2023-02-27T16:01:47.856Z,2.50
2023-02-27T16:04:14.300Z,1.48
2023-02-27T16:06:40.717Z,3.25
2023-02-27T16:09:07.125Z,1.98
2023-02-27T16:11:33.460Z,0.80
2023-02-27T16:13:59.778Z,1.40
2023-02-27T16:16:26.815Z,2.12
2023-02-27T16:18:53.495Z,1.25
2023-02-27T16:21:19.884Z,1.83
2023-02-27T16:23:46.195Z,2.53
2023-02-27T16:26:12.528Z,1.15
2023-02-27T16:28:38.908Z,1.70
2023-02-27T16:31:05.234Z,2.35
2023-02-27T16:33:31.817Z,2.83
2023-02-27T16:35:58.156Z,2.87
2023-02-27T16:38:24.542Z,1.85
2023-02-27T16:40:52.248Z,1.90
2023-02-27T16:43:18.640Z,1.60
2023-02-27T16:45:44.993Z,1.80
2023-02-27T16:48:11.339Z,2.05
2023-02-27T16:50:37.650Z,1.83
2023-02-27T16:53:04.022Z,3.12
2023-02-27T16:55:32.498Z,3.05
2023-02-27T16:57:59.658Z,3.60
2023-02-27T17:00:26.088Z,1.67
2023-02-27T17:02:52.433Z,3.25
2023-02-27T17:05:18.801Z,1.73
2023-02-27T17:07:45.166Z,1.90
2023-02-27T17:10:11.465Z,2.25
2023-02-27T17:12:37.774Z,2.42
2023-02-27T17:15:04.076Z,5.35
2023-02-27T17:17:30.386Z,4.60
2023-02-27T17:19:57.221Z,3.25
2023-02-27T17:22:23.543Z,3.72
2023-02-27T17:24:49.862Z,4.05
2023-02-27T17:27:16.195Z,2.67
2023-02-27T17:29:42.502Z,2.80
2023-02-27T17:32:08.891Z,3.50
2023-02-27T17:34:35.946Z,3.28
2023-02-27T17:37:02.287Z,3.00
2023-02-27T17:39:28.605Z,4.93
2023-02-27T17:41:55.088Z,2.30
2023-02-27T17:44:21.593Z,2.53
2023-02-27T17:46:47.998Z,3.03
2023-02-27T17:49:14.380Z,3.72
2023-02-27T17:51:40.742Z,3.97
2023-02-27T17:54:07.200Z,5.00
2023-02-27T17:56:36.301Z,4.10
2023-02-27T17:59:03.000Z,5.93
2023-02-27T18:01:29.379Z,3.08
2023-02-27T18:03:55.850Z,6.12
2023-02-27T18:06:22.242Z,3.87
2023-02-27T18:08:48.654Z,4.30
2023-02-27T18:11:14.991Z,4.25
2023-02-27T18:13:41.365Z,4.05
2023-02-27T18:16:07.784Z,4.82
2023-02-27T18:18:34.127Z,4.00
2023-02-27T18:21:00.779Z,4.65
2023-02-27T18:23:27.108Z,4.53
2023-02-27T18:25:53.417Z,3.00
2023-02-27T18:28:19.734Z,7.45
2023-02-27T18:30:46.112Z,4.15
2023-02-27T18:33:12.568Z,6.12
2023-02-27T18:35:38.908Z,3.45
2023-02-27T18:38:06.009Z,4.15
2023-02-27T18:40:32.361Z,3.62
2023-02-27T18:42:58.716Z,2.90
2023-02-27T18:45:29.787Z,2.95
2023-02-27T18:47:56.159Z,4.10
2023-02-27T18:50:22.535Z,4.57
2023-02-27T18:52:48.895Z,3.90
2023-02-27T18:55:15.308Z,5.47
2023-02-27T18:57:41.630Z,3.42
2023-02-27T19:00:07.949Z,6.05
2023-02-27T19:02:37.330Z,3.75
2023-02-27T19:05:03.666Z,4.78
2023-02-27T19:07:30.012Z,9.07
2023-02-27T19:09:56.336Z,5.97
2023-02-27T19:12:22.637Z,7.35
2023-02-27T19:14:49.618Z,6.50
2023-02-27T19:17:15.938Z,6.82
2023-02-27T19:19:42.287Z,5.93
2023-02-27T19:22:08.674Z,7.03
2023-02-27T19:24:35.060Z,4.62
2023-02-27T19:27:01.373Z,9.88
2023-02-27T19:29:27.691Z,8.75
2023-02-27T19:31:54.177Z,8.02
2023-02-27T19:34:20.551Z,7.50
2023-02-27T19:36:46.994Z,6.75
2023-02-27T19:39:13.336Z,8.23
2023-02-27T19:41:39.731Z,5.78
2023-02-27T19:44:06.113Z,6.10
2023-02-27T19:46:32.962Z,6.55
2023-02-27T19:48:59.558Z,7.78
2023-02-27T19:51:26.473Z,7.25
2023-02-27T19:53:53.845Z,7.80
2023-02-27T19:56:20.184Z,7.70
2023-02-27T19:58:46.701Z,7.87
2023-02-27T20:01:13.072Z,9.45
2023-02-27T20:03:43.763Z,7.03
2023-02-27T20:06:10.794Z,6.18
2023-02-27T20:08:37.216Z,6.05
2023-02-27T20:11:05.407Z,8.25
2023-02-27T20:13:31.773Z,9.77
2023-02-27T20:15:58.098Z,6.32
2023-02-27T20:18:24.600Z,9.10
2023-02-27T20:20:50.902Z,7.68
2023-02-27T20:23:17.293Z,8.27
2023-02-27T20:25:43.668Z,6.45
2023-02-27T20:28:09.991Z,9.20
2023-02-27T20:30:39.568Z,8.23
2023-02-27T20:33:05.898Z,9.45
2023-02-27T20:35:32.250Z,7.32
2023-02-27T20:37:58.603Z,9.48
2023-02-27T20:40:28.735Z,8.73
2023-02-27T20:42:55.049Z,8.57
2023-02-27T20:45:22.198Z,8.15
2023-02-27T20:47:48.579Z,8.70
2023-02-27T20:50:14.924Z,7.70
2023-02-27T20:52:41.235Z,5.82
2023-02-27T20:55:07.532Z,7.07
2023-02-27T20:57:34.448Z,7.10
2023-02-27T21:00:00.792Z,7.40
2023-02-27T21:02:27.216Z,7.75
2023-02-27T21:04:54.226Z,8.30
2023-02-27T21:07:23.608Z,7.00
2023-02-27T21:09:50.062Z,5.70
2023-02-27T21:12:16.375Z,7.82
2023-02-27T21:14:46.678Z,5.05
2023-02-27T21:17:13.859Z,6.40
2023-02-27T21:19:40.286Z,6.18
2023-02-27T21:22:07.527Z,5.05
2023-02-27T21:24:33.972Z,7.53
2023-02-27T21:27:00.310Z,5.75
2023-02-27T21:29:26.674Z,6.57
2023-02-27T21:31:53.069Z,7.03
2023-02-27T21:34:19.432Z,5.30
2023-02-27T21:36:45.742Z,8.98
2023-02-27T21:39:12.061Z,5.53
2023-02-27T21:41:38.393Z,8.68
2023-02-27T21:44:04.700Z,6.53
2023-02-27T21:46:31.044Z,7.28
2023-02-27T21:48:57.411Z,8.00
2023-02-27T21:51:38.242Z,8.75
2023-02-27T21:54:05.482Z,6.35
2023-02-27T21:56:31.933Z,10.10
2023-02-27T21:58:58.461Z,6.70
2023-02-27T22:01:24.868Z,7.22
2023-02-27T22:03:51.195Z,7.50
2023-02-27T22:06:17.513Z,7.37
2023-02-27T22:08:43.873Z,7.78
2023-02-27T22:11:10.189Z,12.02
2023-02-27T22:13:36.625Z,9.07
2023-02-27T22:16:02.971Z,10.27
2023-02-27T22:18:29.387Z,9.30
2023-02-27T22:20:55.697Z,7.80
2023-02-27T22:23:22.214Z,8.05
2023-02-27T22:25:48.533Z,9.43
2023-02-27T22:28:14.937Z,9.75
2023-02-27T22:30:41.317Z,9.82
2023-02-27T22:33:07.843Z,11.05
2023-02-27T22:35:34.286Z,9.23
2023-02-27T22:38:00.706Z,10.13
2023-02-27T22:40:29.646Z,10.93
2023-02-27T22:42:56.718Z,10.82
2023-02-27T22:45:23.020Z,11.23
2023-02-27T22:47:49.366Z,11.88
2023-02-27T22:50:16.137Z,11.90
2023-02-27T22:52:42.487Z,9.25
2023-02-27T22:55:08.801Z,11.40
2023-02-27T22:57:35.110Z,12.55
2023-02-27T23:00:01.426Z,10.60
2023-02-27T23:02:33.377Z,9.38
2023-02-27T23:04:59.675Z,11.02
2023-02-27T23:07:25.967Z,8.38
2023-02-27T23:09:52.279Z,9.55
2023-02-27T23:12:18.594Z,7.53
2023-02-27T23:14:44.970Z,8.30
2023-02-27T23:17:11.307Z,8.23
2023-02-27T23:19:38.674Z,9.48
2023-02-27T23:22:05.312Z,8.20
2023-02-27T23:24:31.643Z,10.55
2023-02-27T23:26:58.141Z,10.98
2023-02-27T23:29:24.470Z,9.10
2023-02-27T23:31:51.035Z,10.48
2023-02-27T23:34:17.451Z,10.77
2023-02-27T23:36:43.783Z,10.10
2023-02-27T23:39:10.163Z,10.00
2023-02-27T23:41:36.477Z,10.63
2023-02-27T23:44:02.801Z,8.38
2023-02-27T23:46:30.752Z,6.68
2023-02-27T23:48:58.108Z,7.85
2023-02-27T23:51:24.413Z,8.68
2023-02-27T23:53:51.125Z,7.00
2023-02-27T23:56:17.476Z,7.87
2023-02-27T23:58:43.827Z,7.53
